createdAt,value
2017-03-30T00:00:15.036Z,13.16
2017-03-30T00:01:26.029Z,13.13
2017-03-30T00:02:37.219Z,13.2
2017-03-30T00:03:48.207Z,13.21
2017-03-30T00:04:59.188Z,13.14
2017-03-30T00:06:10.182Z,13.13
2017-03-30T00:07:21.373Z,13.19
2017-03-30T00:08:32.358Z,13.17
2017-03-30T00:09:43.555Z,13.16
2017-03-30T00:10:54.551Z,13.17
2017-03-30T00:12:05.737Z,13.19
2017-03-30T00:13:17.126Z,13.2
2017-03-30T00:14:28.111Z,13.21
2017-03-30T00:15:39.102Z,13.2
2017-03-30T00:16:50.092Z,13.19
2017-03-30T00:18:01.329Z,13.21
2017-03-30T00:19:12.319Z,13.2
2017-03-30T00:20:23.309Z,13.16
2017-03-30T00:21:34.299Z,13.27
2017-03-30T00:22:45.290Z,13.27
2017-03-30T00:23:56.295Z,13.19
2017-03-30T00:25:07.290Z,13.19
2017-03-30T00:26:18.277Z,13.14
2017-03-30T00:27:29.273Z,13.13
2017-03-30T00:28:40.265Z,13.16
2017-03-30T00:29:51.279Z,13.07
2017-03-30T00:31:02.471Z,13.09
2017-03-30T00:32:13.462Z,13.01
2017-03-30T00:33:24.456Z,13.01
2017-03-30T00:34:35.445Z,13.03
2017-03-30T00:35:46.842Z,13.02
2017-03-30T00:36:58.238Z,13.06
2017-03-30T00:38:09.227Z,13.03
2017-03-30T00:39:20.473Z,12.98
2017-03-30T00:40:31.458Z,13.07
2017-03-30T00:41:42.475Z,13.01
2017-03-30T00:42:53.468Z,13.03
2017-03-30T00:44:04.464Z,13.07
2017-03-30T00:45:15.655Z,13.02
2017-03-30T00:46:26.647Z,13.03
2017-03-30T00:47:37.636Z,13.07
2017-03-30T00:48:48.818Z,13.1
2017-03-30T00:49:59.857Z,13.02
2017-03-30T00:51:11.251Z,13.03
2017-03-30T00:52:22.256Z,13.09
2017-03-30T00:53:33.235Z,13.03
2017-03-30T00:54:44.425Z,13.03
2017-03-30T00:55:55.419Z,13.03
2017-03-30T00:57:06.405Z,13.06
2017-03-30T00:58:17.398Z,13.01
2017-03-30T00:59:28.598Z,12.99
2017-03-30T01:00:39.639Z,12.99
2017-03-30T01:01:50.836Z,12.95
2017-03-30T01:03:01.851Z,12.89
2017-03-30T01:04:13.039Z,12.91
2017-03-30T01:05:24.035Z,12.88
2017-03-30T01:06:35.022Z,12.91
2017-03-30T01:07:46.003Z,12.95
2017-03-30T01:08:57.006Z,12.92
2017-03-30T01:10:07.992Z,12.89
2017-03-30T01:11:18.983Z,12.89
2017-03-30T01:12:30.023Z,12.91
2017-03-30T01:13:41.019Z,12.84
2017-03-30T01:14:52.019Z,12.81
2017-03-30T01:16:03.214Z,12.81
2017-03-30T01:17:14.200Z,12.91
2017-03-30T01:18:25.183Z,12.78
2017-03-30T01:19:36.175Z,12.78
2017-03-30T01:20:47.364Z,12.81
2017-03-30T01:21:58.607Z,12.92
2017-03-30T01:23:09.606Z,12.8
2017-03-30T01:24:20.592Z,12.94
2017-03-30T01:25:31.582Z,12.89
2017-03-30T01:26:42.567Z,12.89
2017-03-30T01:27:53.562Z,12.89
2017-03-30T01:29:04.564Z,12.89
2017-03-30T01:30:15.560Z,12.91
2017-03-30T01:31:26.595Z,12.86
2017-03-30T01:32:37.630Z,12.86
2017-03-30T01:33:48.615Z,12.81
2017-03-30T01:34:59.610Z,12.88
2017-03-30T01:36:10.603Z,12.88
2017-03-30T01:37:21.589Z,12.84
2017-03-30T01:38:32.575Z,12.89
2017-03-30T01:39:43.562Z,12.91
2017-03-30T01:40:54.758Z,12.78
2017-03-30T01:42:05.948Z,12.81
2017-03-30T01:43:17.138Z,12.86
2017-03-30T01:44:28.127Z,12.81
2017-03-30T01:45:39.324Z,12.81
2017-03-30T01:46:50.306Z,12.8
2017-03-30T01:48:01.299Z,12.83
2017-03-30T01:49:12.342Z,12.89
2017-03-30T01:50:23.331Z,12.91
2017-03-30T01:51:34.723Z,12.91
2017-03-30T01:52:45.716Z,12.94
2017-03-30T01:53:56.703Z,12.89
2017-03-30T01:55:07.693Z,12.89
2017-03-30T01:56:18.890Z,12.95
2017-03-30T01:57:29.892Z,13.01
2017-03-30T01:58:41.138Z,13.03
2017-03-30T01:59:52.323Z,13.06
2017-03-30T02:01:03.312Z,13.03
2017-03-30T02:02:14.304Z,13.03
2017-03-30T02:03:25.496Z,12.99
2017-03-30T02:04:36.500Z,13.02
2017-03-30T02:05:47.494Z,13.07
2017-03-30T02:06:58.481Z,13.09
2017-03-30T02:08:09.669Z,13.07
2017-03-30T02:09:20.900Z,13.06
2017-03-30T02:10:31.879Z,13.03
2017-03-30T02:11:43.066Z,13.07
2017-03-30T02:12:54.055Z,13.1
2017-03-30T02:14:05.042Z,13.1
2017-03-30T02:15:16.065Z,13.06
2017-03-30T02:16:27.253Z,13.14
2017-03-30T02:17:38.246Z,13.11
2017-03-30T02:18:49.637Z,13.07
2017-03-30T02:20:00.681Z,13.16
2017-03-30T02:21:11.868Z,13.19
2017-03-30T02:22:22.862Z,13.09
2017-03-30T02:23:34.059Z,13.11
2017-03-30T02:24:45.259Z,13.19
2017-03-30T02:25:56.255Z,13.14
2017-03-30T02:27:07.256Z,13.14
2017-03-30T02:28:18.251Z,13.14
2017-03-30T02:29:29.240Z,13.1
2017-03-30T02:30:40.481Z,13.07
2017-03-30T02:31:51.666Z,13.07
2017-03-30T02:33:03.066Z,13.11
2017-03-30T02:34:14.456Z,13.06
2017-03-30T02:35:25.446Z,13.14
2017-03-30T02:36:36.644Z,13.11
2017-03-30T02:37:47.640Z,13.13
2017-03-30T02:38:58.647Z,13.11
2017-03-30T02:40:09.649Z,13.14
2017-03-30T02:41:20.895Z,13.11
2017-03-30T02:42:31.886Z,13.16
2017-03-30T02:43:43.071Z,13.11
2017-03-30T02:44:54.044Z,13.11
2017-03-30T02:46:05.440Z,13.06
2017-03-30T02:47:16.438Z,13.07
2017-03-30T02:48:27.428Z,13.07
2017-03-30T02:49:38.423Z,13.06
2017-03-30T02:50:49.422Z,13.03
2017-03-30T02:52:00.470Z,13.03
2017-03-30T02:53:11.651Z,13.07
2017-03-30T02:54:22.635Z,13.03
2017-03-30T02:55:33.830Z,13.09
2017-03-30T02:56:44.833Z,13.02
2017-03-30T02:57:56.077Z,13.13
2017-03-30T02:59:07.090Z,13.06
2017-03-30T03:00:18.090Z,13.03
2017-03-30T03:01:29.076Z,13.1
2017-03-30T03:02:40.074Z,13.1
2017-03-30T03:03:51.267Z,13.07
2017-03-30T03:05:02.264Z,13.07
2017-03-30T03:06:13.456Z,13.06
2017-03-30T03:07:24.442Z,13.07
2017-03-30T03:08:35.438Z,13.09
2017-03-30T03:09:46.477Z,13.06
2017-03-30T03:10:57.473Z,13.07
2017-03-30T03:12:08.467Z,13.1
2017-03-30T03:13:19.653Z,13.07
2017-03-30T03:14:30.640Z,13.06
2017-03-30T03:15:41.633Z,13.07
2017-03-30T03:16:52.627Z,13.02
2017-03-30T03:18:03.607Z,13.03
2017-03-30T03:19:15.038Z,13.02
2017-03-30T03:20:26.232Z,13.07
2017-03-30T03:21:37.421Z,13.06
2017-03-30T03:22:48.411Z,13.09
2017-03-30T03:23:59.400Z,12.99
2017-03-30T03:25:10.386Z,13.03
2017-03-30T03:26:21.367Z,12.99
2017-03-30T03:27:32.362Z,13.02
2017-03-30T03:28:43.547Z,13.02
2017-03-30T03:29:54.587Z,13.03
2017-03-30T03:31:05.576Z,13.02
2017-03-30T03:32:16.571Z,13.02
2017-03-30T03:33:27.568Z,13.06
2017-03-30T03:34:38.551Z,13.01
2017-03-30T03:35:49.795Z,13.06
2017-03-30T03:37:00.787Z,13.06
2017-03-30T03:38:11.782Z,13.02
2017-03-30T03:39:22.972Z,13.01
2017-03-30T03:40:33.955Z,13.06
2017-03-30T03:41:44.947Z,13.01
2017-03-30T03:42:55.939Z,12.99
2017-03-30T03:44:06.937Z,13.06
2017-03-30T03:45:17.922Z,13.06
2017-03-30T03:46:28.915Z,13.03
2017-03-30T03:47:40.164Z,13.09
2017-03-30T03:48:51.152Z,13.01
2017-03-30T03:50:02.173Z,13.07
2017-03-30T03:51:13.167Z,13.01
2017-03-30T03:52:24.158Z,12.99
2017-03-30T03:53:35.150Z,13.06
2017-03-30T03:54:46.142Z,13.01
2017-03-30T03:55:57.129Z,13.06
2017-03-30T03:57:08.183Z,12.99
2017-03-30T03:58:19.372Z,13.02
2017-03-30T03:59:30.362Z,13.01
2017-03-30T04:00:41.351Z,13.06
2017-03-30T04:01:52.343Z,13.03
2017-03-30T04:03:03.326Z,13.03
2017-03-30T04:04:14.325Z,13.03
2017-03-30T04:05:25.313Z,12.95
2017-03-30T04:06:36.311Z,12.99
2017-03-30T04:07:47.554Z,12.91
2017-03-30T04:08:58.743Z,13.01
2017-03-30T04:10:09.724Z,12.89
2017-03-30T04:11:21.123Z,12.94
2017-03-30T04:12:32.316Z,12.92
2017-03-30T04:13:43.513Z,12.95
2017-03-30T04:14:54.507Z,13.07
2017-03-30T04:16:05.502Z,12.98
2017-03-30T04:17:16.501Z,13.01
2017-03-30T04:18:27.491Z,12.92
2017-03-30T04:19:38.486Z,12.92
2017-03-30T04:20:49.477Z,12.84
2017-03-30T04:22:00.469Z,12.88
2017-03-30T04:23:11.465Z,12.89
2017-03-30T04:24:22.451Z,12.91
2017-03-30T04:25:33.438Z,12.89
2017-03-30T04:26:44.437Z,12.92
2017-03-30T04:27:55.627Z,12.84
2017-03-30T04:29:06.866Z,12.81
2017-03-30T04:30:17.864Z,12.8
2017-03-30T04:31:28.853Z,12.81
2017-03-30T04:32:40.044Z,12.81
2017-03-30T04:33:51.027Z,12.86
2017-03-30T04:35:02.016Z,12.77
2017-03-30T04:36:13.010Z,12.8
2017-03-30T04:37:24.003Z,12.86
2017-03-30T04:38:35.188Z,12.81
2017-03-30T04:39:46.227Z,12.74
2017-03-30T04:40:57.211Z,12.71
2017-03-30T04:42:08.202Z,12.74
2017-03-30T04:43:19.194Z,12.69
2017-03-30T04:44:30.180Z,12.76
2017-03-30T04:45:41.169Z,12.78
2017-03-30T04:46:52.155Z,12.76
2017-03-30T04:48:03.143Z,12.73
2017-03-30T04:49:14.128Z,12.76
2017-03-30T04:50:25.162Z,12.77
2017-03-30T04:51:36.144Z,12.76
2017-03-30T04:52:47.137Z,12.84
2017-03-30T04:53:58.120Z,12.83
2017-03-30T04:55:09.104Z,12.83
2017-03-30T04:56:20.093Z,12.84
2017-03-30T04:57:31.078Z,12.8
2017-03-30T04:58:42.280Z,12.81
2017-03-30T04:59:53.475Z,12.86
2017-03-30T05:01:04.482Z,12.88
2017-03-30T05:02:15.479Z,12.88
2017-03-30T05:03:26.476Z,12.84
2017-03-30T05:04:37.458Z,12.84
2017-03-30T05:05:48.448Z,12.86
2017-03-30T05:06:59.484Z,12.81
2017-03-30T05:08:10.479Z,12.71
2017-03-30T05:09:21.468Z,12.76
2017-03-30T05:10:32.662Z,12.7
2017-03-30T05:11:43.651Z,12.7
2017-03-30T05:12:54.640Z,12.78
2017-03-30T05:14:05.625Z,12.8
2017-03-30T05:15:16.815Z,12.74
2017-03-30T05:16:27.802Z,12.76
2017-03-30T05:17:39.245Z,12.73
2017-03-30T05:18:50.235Z,12.8
2017-03-30T05:20:01.243Z,12.81
2017-03-30T05:21:12.237Z,12.77
2017-03-30T05:22:23.282Z,12.76
2017-03-30T05:23:34.322Z,12.74
2017-03-30T05:24:45.514Z,12.84
2017-03-30T05:25:56.716Z,12.83
2017-03-30T05:27:07.912Z,12.83
2017-03-30T05:28:18.953Z,12.76
2017-03-30T05:29:30.154Z,12.83
2017-03-30T05:30:41.152Z,12.81
2017-03-30T05:31:52.153Z,12.83
2017-03-30T05:33:03.143Z,12.81
2017-03-30T05:34:14.132Z,12.8
2017-03-30T05:35:25.120Z,12.84
2017-03-30T05:36:36.317Z,12.92
2017-03-30T05:37:47.310Z,12.92
2017-03-30T05:38:58.307Z,12.89
2017-03-30T05:40:09.293Z,12.81
2017-03-30T05:41:20.276Z,12.92
2017-03-30T05:42:31.262Z,12.91
2017-03-30T05:43:42.256Z,12.86
2017-03-30T05:44:53.245Z,12.89
2017-03-30T05:46:04.281Z,12.98
2017-03-30T05:47:15.488Z,12.92
2017-03-30T05:48:26.475Z,12.91
2017-03-30T05:49:37.467Z,12.96
2017-03-30T05:50:48.663Z,12.95
2017-03-30T05:51:59.864Z,12.99
2017-03-30T05:53:10.857Z,12.99
2017-03-30T05:54:22.048Z,12.99
2017-03-30T05:55:33.103Z,13.06
2017-03-30T05:56:44.096Z,13.01
2017-03-30T05:57:55.079Z,13.03
2017-03-30T05:59:06.076Z,13.01
2017-03-30T06:00:17.070Z,13.03
2017-03-30T06:01:28.051Z,13.11
2017-03-30T06:02:39.040Z,13.07
2017-03-30T06:03:50.033Z,13.1
2017-03-30T06:05:01.026Z,13.06
2017-03-30T06:06:12.288Z,13.1
2017-03-30T06:07:23.281Z,13.07
2017-03-30T06:08:34.275Z,13.14
2017-03-30T06:09:45.262Z,13.13
2017-03-30T06:10:56.245Z,13.13
2017-03-30T06:12:07.234Z,13.13
2017-03-30T06:13:18.233Z,13.19
2017-03-30T06:14:29.415Z,13.2
2017-03-30T06:15:40.611Z,13.17
2017-03-30T06:16:51.815Z,13.24
2017-03-30T06:18:02.814Z,13.24
2017-03-30T06:19:13.813Z,13.17
2017-03-30T06:20:25.007Z,13.2
2017-03-30T06:21:35.997Z,13.24
2017-03-30T06:22:47.034Z,13.25
2017-03-30T06:23:58.026Z,13.35
2017-03-30T06:25:09.029Z,13.25
2017-03-30T06:26:20.025Z,13.27
2017-03-30T06:27:31.420Z,13.32
2017-03-30T06:28:42.413Z,13.32
2017-03-30T06:29:53.405Z,13.36
2017-03-30T06:31:04.401Z,13.47
2017-03-30T06:32:15.444Z,13.45
2017-03-30T06:33:26.643Z,13.36
2017-03-30T06:34:37.640Z,13.48
2017-03-30T06:35:48.650Z,13.42
2017-03-30T06:36:59.646Z,13.45
2017-03-30T06:38:10.637Z,13.45
2017-03-30T06:39:21.633Z,13.57
2017-03-30T06:40:32.653Z,13.44
2017-03-30T06:41:43.643Z,13.54
2017-03-30T06:42:54.882Z,13.54
2017-03-30T06:44:05.864Z,13.62
2017-03-30T06:45:16.864Z,13.54
2017-03-30T06:46:27.851Z,13.65
2017-03-30T06:47:38.850Z,13.66
2017-03-30T06:48:49.838Z,13.76
2017-03-30T06:50:00.826Z,13.73
2017-03-30T06:51:12.034Z,13.73
2017-03-30T06:52:23.032Z,13.73
2017-03-30T06:53:34.026Z,13.78
2017-03-30T06:54:45.013Z,13.87
2017-03-30T06:55:55.998Z,13.94
2017-03-30T06:57:07.191Z,14.19
2017-03-30T06:58:18.186Z,14.24
2017-03-30T06:59:29.433Z,14.31
2017-03-30T07:00:40.443Z,14.33
2017-03-30T07:01:51.435Z,14.38
2017-03-30T07:03:02.431Z,14.48
2017-03-30T07:04:13.432Z,14.44
2017-03-30T07:05:24.419Z,14.44
2017-03-30T07:06:35.413Z,14.56
2017-03-30T07:07:46.409Z,14.49
2017-03-30T07:08:57.646Z,14.51
2017-03-30T07:10:08.644Z,14.59
2017-03-30T07:11:19.839Z,14.66
2017-03-30T07:12:30.869Z,14.7
2017-03-30T07:13:41.862Z,14.82
2017-03-30T07:14:52.850Z,14.8
2017-03-30T07:16:03.841Z,14.71
2017-03-30T07:17:15.045Z,14.83
2017-03-30T07:18:26.037Z,14.85
2017-03-30T07:19:37.076Z,14.89
2017-03-30T07:20:48.077Z,14.93
2017-03-30T07:21:59.079Z,15.15
2017-03-30T07:23:10.076Z,15.65
2017-03-30T07:24:21.071Z,15.88
2017-03-30T07:25:32.058Z,16.1
2017-03-30T07:26:43.274Z,16.26
2017-03-30T07:27:54.267Z,16.39
2017-03-30T07:29:05.265Z,16.29
2017-03-30T07:30:16.317Z,16.21
2017-03-30T07:31:27.527Z,16.21
2017-03-30T07:32:38.527Z,16.11
2017-03-30T07:33:49.528Z,16.13
2017-03-30T07:35:00.733Z,16.45
2017-03-30T07:36:11.738Z,16.62
2017-03-30T07:37:22.933Z,16.84
2017-03-30T07:38:33.933Z,16.91
2017-03-30T07:39:44.936Z,16.69
2017-03-30T07:40:55.938Z,16.63
2017-03-30T07:42:07.146Z,16.65
2017-03-30T07:43:18.141Z,16.8
2017-03-30T07:44:29.141Z,16.81
2017-03-30T07:45:40.135Z,16.65
2017-03-30T07:46:51.148Z,16.62
2017-03-30T07:48:02.173Z,16.42
2017-03-30T07:49:13.170Z,16.17
2017-03-30T07:50:24.159Z,16.07
2017-03-30T07:51:35.156Z,16.07
2017-03-30T07:52:46.154Z,15.98
2017-03-30T07:53:57.149Z,15.88
2017-03-30T07:55:08.143Z,15.84
2017-03-30T07:56:19.144Z,15.88
2017-03-30T07:57:30.140Z,15.78
2017-03-30T07:58:41.137Z,15.71
2017-03-30T07:59:52.129Z,15.73
2017-03-30T08:01:03.380Z,15.73
2017-03-30T08:02:14.373Z,15.71
2017-03-30T08:03:25.355Z,15.7
2017-03-30T08:04:36.349Z,15.84
2017-03-30T08:05:47.345Z,15.77
2017-03-30T08:06:58.342Z,15.81
2017-03-30T08:08:09.338Z,15.78
2017-03-30T08:09:20.339Z,15.83
2017-03-30T08:10:31.340Z,15.86
2017-03-30T08:11:42.535Z,15.88
2017-03-30T08:12:53.529Z,15.95
2017-03-30T08:14:04.550Z,16.07
2017-03-30T08:15:15.948Z,16.08
2017-03-30T08:16:26.942Z,16.04
2017-03-30T08:17:38.136Z,16.02
2017-03-30T08:18:49.127Z,16.02
2017-03-30T08:20:00.162Z,16.32
2017-03-30T08:21:11.167Z,16.85
2017-03-30T08:22:22.162Z,17.38
2017-03-30T08:23:33.361Z,17.9
2017-03-30T08:24:44.386Z,18.16
2017-03-30T08:25:55.388Z,18.31
2017-03-30T08:27:06.390Z,18.36
2017-03-30T08:28:17.391Z,18.34
2017-03-30T08:29:28.612Z,18.13
2017-03-30T08:30:39.621Z,17.92
2017-03-30T08:31:50.623Z,17.69
2017-03-30T08:33:01.621Z,17.84
2017-03-30T08:34:12.827Z,18.11
2017-03-30T08:35:23.840Z,18.35
2017-03-30T08:36:34.849Z,18.72
2017-03-30T08:37:45.855Z,19.1
2017-03-30T08:38:56.860Z,19.3
2017-03-30T08:40:07.860Z,19.6
2017-03-30T08:41:18.869Z,19.83
2017-03-30T08:42:29.920Z,20.05
2017-03-30T08:43:40.939Z,20.27
2017-03-30T08:44:51.947Z,20.2
2017-03-30T08:46:02.943Z,19.98
2017-03-30T08:47:13.954Z,20.12
2017-03-30T08:48:25.368Z,20.1
2017-03-30T08:49:36.378Z,20.19
2017-03-30T08:50:47.388Z,19.98
2017-03-30T08:51:58.403Z,19.87
2017-03-30T08:53:09.409Z,19.89
2017-03-30T08:54:20.421Z,20
2017-03-30T08:55:31.427Z,20.3
2017-03-30T08:56:42.441Z,20.41
2017-03-30T08:57:53.650Z,20.34
2017-03-30T08:59:04.861Z,20.26
2017-03-30T09:00:15.864Z,20.01
2017-03-30T09:01:26.881Z,19.78
2017-03-30T09:02:37.888Z,19.53
2017-03-30T09:03:48.902Z,19.61
2017-03-30T09:04:59.912Z,19.64
2017-03-30T09:06:10.917Z,19.52
2017-03-30T09:07:21.914Z,19.63
2017-03-30T09:08:32.922Z,19.57
2017-03-30T09:09:43.921Z,19.57
2017-03-30T09:10:54.927Z,19.55
2017-03-30T09:12:05.928Z,19.45
2017-03-30T09:13:16.941Z,19.4
2017-03-30T09:14:27.949Z,19.56
2017-03-30T09:15:38.960Z,19.63
2017-03-30T09:16:49.963Z,19.63
2017-03-30T09:18:01.222Z,19.8
2017-03-30T09:19:12.234Z,19.75
2017-03-30T09:20:23.245Z,20.11
2017-03-30T09:21:34.243Z,20.25
2017-03-30T09:22:45.258Z,20.41
2017-03-30T09:23:56.262Z,20.44
2017-03-30T09:25:07.679Z,20.66
2017-03-30T09:26:18.687Z,20.81
2017-03-30T09:27:29.913Z,20.93
2017-03-30T09:28:41.572Z,21.06
2017-03-30T09:29:52.589Z,21.16
2017-03-30T09:31:03.806Z,20.93
2017-03-30T09:32:14.815Z,20.74
2017-03-30T09:33:25.830Z,20.46
2017-03-30T09:34:36.845Z,20.44
2017-03-30T09:35:48.255Z,20.56
2017-03-30T09:36:59.457Z,20.64
2017-03-30T09:38:10.460Z,20.66
2017-03-30T09:39:21.676Z,20.63
2017-03-30T09:40:32.888Z,20.83
2017-03-30T09:41:44.097Z,20.9
2017-03-30T09:42:55.501Z,20.78
2017-03-30T09:44:06.500Z,20.67
2017-03-30T09:45:17.506Z,20.38
2017-03-30T09:46:28.514Z,20.61
2017-03-30T09:47:39.523Z,20.79
2017-03-30T09:48:50.528Z,20.74
2017-03-30T09:50:01.529Z,20.72
2017-03-30T09:51:12.534Z,20.76
2017-03-30T09:52:23.568Z,20.79
2017-03-30T09:53:34.575Z,20.86
2017-03-30T09:54:45.578Z,20.82
2017-03-30T09:55:56.577Z,20.83
2017-03-30T09:57:07.573Z,20.88
2017-03-30T09:58:18.606Z,20.9
2017-03-30T09:59:29.852Z,20.88
2017-03-30T10:00:40.858Z,20.83
2017-03-30T10:01:52.063Z,20.9
2017-03-30T10:03:03.064Z,20.98
2017-03-30T10:04:14.072Z,20.93
2017-03-30T10:05:25.079Z,21.06
2017-03-30T10:06:36.089Z,21.27
2017-03-30T10:07:47.094Z,21.38
2017-03-30T10:08:58.107Z,21.36
2017-03-30T10:10:09.127Z,21.38
2017-03-30T10:11:20.131Z,21.31
2017-03-30T10:12:31.136Z,21.31
2017-03-30T10:13:42.130Z,21.64
2017-03-30T10:14:53.140Z,21.68
2017-03-30T10:16:04.150Z,21.86
2017-03-30T10:17:15.155Z,22.09
2017-03-30T10:18:26.366Z,22.22
2017-03-30T10:19:37.377Z,22.33
2017-03-30T10:20:48.392Z,22.52
2017-03-30T10:21:59.393Z,22.55
2017-03-30T10:23:10.407Z,22.7
2017-03-30T10:24:21.618Z,22.86
2017-03-30T10:25:32.635Z,23.03
2017-03-30T10:26:43.645Z,23.07
2017-03-30T10:27:54.649Z,23.01
2017-03-30T10:29:05.654Z,23.06
2017-03-30T10:30:16.668Z,23.16
2017-03-30T10:31:27.931Z,23.21
2017-03-30T10:32:38.944Z,23.34
2017-03-30T10:33:49.946Z,23.4
2017-03-30T10:35:00.955Z,23.6
2017-03-30T10:36:11.970Z,23.55
2017-03-30T10:37:22.987Z,23.41
2017-03-30T10:38:34.004Z,23.25
2017-03-30T10:39:45.017Z,23.28
2017-03-30T10:40:56.288Z,23.28
2017-03-30T10:42:07.297Z,23.25
2017-03-30T10:43:18.307Z,23.25
2017-03-30T10:44:29.337Z,23.1
2017-03-30T10:45:40.350Z,23.28
2017-03-30T10:46:51.566Z,23.41
2017-03-30T10:48:02.596Z,23.42
2017-03-30T10:49:13.603Z,23.62
2017-03-30T10:50:24.609Z,23.56
2017-03-30T10:51:35.615Z,23.62
2017-03-30T10:52:46.619Z,23.62
2017-03-30T10:53:57.825Z,23.5
2017-03-30T10:55:08.825Z,23.53
2017-03-30T10:56:19.843Z,23.63
2017-03-30T10:57:30.844Z,23.52
2017-03-30T10:58:41.856Z,23.44
2017-03-30T10:59:52.864Z,23.47
2017-03-30T11:01:04.072Z,23.4
2017-03-30T11:02:15.084Z,23.42
2017-03-30T11:03:26.090Z,23.53
2017-03-30T11:04:37.309Z,23.42
2017-03-30T11:05:48.356Z,23.64
2017-03-30T11:06:59.357Z,23.75
2017-03-30T11:08:10.366Z,23.87
2017-03-30T11:09:21.604Z,24.02
2017-03-30T11:10:32.818Z,24.11
2017-03-30T11:11:44.087Z,24.26
2017-03-30T11:12:55.098Z,24.29
2017-03-30T11:14:06.105Z,24.32
2017-03-30T11:15:17.316Z,24.34
2017-03-30T11:16:28.329Z,24.59
2017-03-30T11:17:39.338Z,24.58
2017-03-30T11:18:50.572Z,24.48
2017-03-30T11:20:01.589Z,24.59
2017-03-30T11:21:12.595Z,24.74
2017-03-30T11:22:23.855Z,24.75
2017-03-30T11:23:34.863Z,24.7
2017-03-30T11:24:46.077Z,24.67
2017-03-30T11:25:57.086Z,24.54
2017-03-30T11:27:08.095Z,24.3
2017-03-30T11:28:19.105Z,24.02
2017-03-30T11:29:30.117Z,24.08
2017-03-30T11:30:41.130Z,23.94
2017-03-30T11:31:52.131Z,23.99
2017-03-30T11:33:03.137Z,24.17
2017-03-30T11:34:14.146Z,24.11
2017-03-30T11:35:25.153Z,24.24
2017-03-30T11:36:36.154Z,24.33
2017-03-30T11:37:47.167Z,24.34
2017-03-30T11:38:58.187Z,24.49
2017-03-30T11:40:09.403Z,24.75
2017-03-30T11:41:20.407Z,25.02
2017-03-30T11:42:31.416Z,24.93
2017-03-30T11:43:42.419Z,24.46
2017-03-30T11:44:53.438Z,24
2017-03-30T11:46:04.471Z,23.78
2017-03-30T11:47:15.497Z,23.74
2017-03-30T11:48:26.515Z,24.07
2017-03-30T11:49:37.718Z,24.32
2017-03-30T11:50:48.729Z,24.39
2017-03-30T11:51:59.736Z,24.18
2017-03-30T11:53:10.996Z,24.14
2017-03-30T11:54:22.012Z,24.11
2017-03-30T11:55:33.017Z,24.37
2017-03-30T11:56:44.020Z,24.54
2017-03-30T11:57:55.229Z,24.22
2017-03-30T11:59:06.253Z,23.85
2017-03-30T12:00:17.257Z,23.59
2017-03-30T12:01:28.265Z,23.25
2017-03-30T12:02:39.263Z,23.28
2017-03-30T12:03:50.470Z,23.53
2017-03-30T12:05:01.479Z,23.79
2017-03-30T12:06:12.493Z,24.09
2017-03-30T12:07:23.906Z,24.32
2017-03-30T12:08:34.915Z,24.48
2017-03-30T12:09:45.919Z,24.39
2017-03-30T12:10:56.922Z,24.11
2017-03-30T12:12:07.934Z,23.75
2017-03-30T12:13:18.940Z,23.67
2017-03-30T12:14:29.949Z,23.93
2017-03-30T12:15:40.968Z,24.09
2017-03-30T12:16:51.974Z,24.32
2017-03-30T12:18:02.982Z,24.54
2017-03-30T12:19:13.990Z,24.75
2017-03-30T12:20:25.198Z,24.71
2017-03-30T12:21:36.208Z,24.64
2017-03-30T12:22:47.420Z,24.58
2017-03-30T12:23:58.426Z,24.33
2017-03-30T12:25:09.445Z,24.54
2017-03-30T12:26:20.452Z,24.55
2017-03-30T12:27:31.456Z,24.3
2017-03-30T12:28:42.464Z,24.34
2017-03-30T12:29:53.478Z,24.32
2017-03-30T12:31:04.493Z,24.59
2017-03-30T12:32:15.498Z,24.74
2017-03-30T12:33:26.501Z,24.67
2017-03-30T12:34:37.572Z,24.9
2017-03-30T12:35:48.577Z,24.96
2017-03-30T12:36:59.586Z,25.08
2017-03-30T12:38:10.600Z,25.17
2017-03-30T12:39:21.603Z,25.19
2017-03-30T12:40:32.810Z,24.9
2017-03-30T12:41:43.818Z,24.69
2017-03-30T12:42:54.827Z,24.59
2017-03-30T12:44:06.036Z,24.55
2017-03-30T12:45:17.046Z,24.58
2017-03-30T12:46:28.057Z,24.29
2017-03-30T12:47:39.065Z,24
2017-03-30T12:48:50.269Z,24.07
2017-03-30T12:50:01.287Z,24.24
2017-03-30T12:51:12.547Z,24.32
2017-03-30T12:52:23.547Z,24.18
2017-03-30T12:53:34.552Z,23.94
2017-03-30T12:54:45.560Z,23.78
2017-03-30T12:55:56.560Z,23.59
2017-03-30T12:57:07.562Z,23.42
2017-03-30T12:58:18.568Z,23.47
2017-03-30T12:59:29.577Z,23.44
2017-03-30T13:00:40.639Z,23.5
2017-03-30T13:01:51.650Z,23.67
2017-03-30T13:03:02.650Z,23.78
2017-03-30T13:04:13.862Z,23.62
2017-03-30T13:05:24.874Z,23.55
2017-03-30T13:06:36.123Z,23.48
2017-03-30T13:07:47.321Z,23.41
2017-03-30T13:08:58.323Z,23.42
2017-03-30T13:10:09.333Z,23.32
2017-03-30T13:11:20.342Z,23.53
2017-03-30T13:12:31.538Z,23.71
2017-03-30T13:13:42.536Z,23.93
2017-03-30T13:14:53.543Z,24.02
2017-03-30T13:16:04.549Z,24.11
2017-03-30T13:17:15.555Z,23.97
2017-03-30T13:18:26.557Z,23.89
2017-03-30T13:19:37.769Z,23.63
2017-03-30T13:20:48.769Z,23.52
2017-03-30T13:21:59.768Z,23.41
2017-03-30T13:23:10.772Z,23.38
2017-03-30T13:24:21.815Z,23.42
2017-03-30T13:25:32.809Z,23.52
2017-03-30T13:26:43.811Z,23.5
2017-03-30T13:27:54.813Z,23.6
2017-03-30T13:29:05.813Z,23.89
2017-03-30T13:30:16.820Z,23.92
2017-03-30T13:31:27.826Z,23.92
2017-03-30T13:32:38.828Z,23.82
2017-03-30T13:33:49.848Z,23.72
2017-03-30T13:35:00.861Z,23.7
2017-03-30T13:36:11.867Z,23.75
2017-03-30T13:37:22.878Z,23.71
2017-03-30T13:38:33.886Z,23.79
2017-03-30T13:39:45.087Z,23.85
2017-03-30T13:40:56.098Z,23.89
2017-03-30T13:42:07.302Z,23.96
2017-03-30T13:43:18.300Z,23.97
2017-03-30T13:44:29.309Z,23.85
2017-03-30T13:45:40.311Z,23.81
2017-03-30T13:46:51.315Z,23.74
2017-03-30T13:48:02.309Z,23.53
2017-03-30T13:49:13.325Z,23.48
2017-03-30T13:50:24.332Z,23.37
2017-03-30T13:51:35.782Z,23.19
2017-03-30T13:52:46.793Z,23.15
2017-03-30T13:53:57.789Z,23.04
2017-03-30T13:55:08.787Z,23.09
2017-03-30T13:56:19.988Z,23.01
2017-03-30T13:57:31.192Z,22.97
2017-03-30T13:58:42.190Z,23.07
2017-03-30T13:59:53.186Z,23.03
2017-03-30T14:01:04.222Z,23.06
2017-03-30T14:02:15.222Z,23.07
2017-03-30T14:03:26.220Z,23.15
2017-03-30T14:04:37.225Z,23.14
2017-03-30T14:05:48.427Z,23.16
2017-03-30T14:06:59.831Z,23.15
2017-03-30T14:08:10.869Z,23.34
2017-03-30T14:09:21.871Z,23.38
2017-03-30T14:10:32.873Z,23.19
2017-03-30T14:11:43.881Z,22.94
2017-03-30T14:12:55.080Z,22.66
2017-03-30T14:14:06.075Z,22.49
2017-03-30T14:15:17.482Z,22.48
2017-03-30T14:16:28.478Z,22.38
2017-03-30T14:17:39.676Z,22.29
2017-03-30T14:18:50.885Z,22.38
2017-03-30T14:20:01.894Z,22.23
2017-03-30T14:21:12.902Z,22.44
2017-03-30T14:22:24.351Z,22.51
2017-03-30T14:23:35.357Z,22.6
2017-03-30T14:24:46.356Z,22.61
2017-03-30T14:25:57.554Z,22.59
2017-03-30T14:27:08.557Z,22.49
2017-03-30T14:28:19.558Z,22.55
2017-03-30T14:29:30.560Z,22.38
2017-03-30T14:30:41.563Z,22.44
2017-03-30T14:31:52.561Z,22.31
2017-03-30T14:33:03.554Z,22.22
2017-03-30T14:34:14.557Z,22.27
2017-03-30T14:35:25.566Z,22.49
2017-03-30T14:36:36.563Z,22.66
2017-03-30T14:37:47.569Z,22.73
2017-03-30T14:38:58.574Z,22.71
2017-03-30T14:40:09.783Z,22.57
2017-03-30T14:41:20.818Z,22.69
2017-03-30T14:42:32.019Z,22.66
2017-03-30T14:43:43.272Z,22.69
2017-03-30T14:44:54.273Z,22.55
2017-03-30T14:46:05.281Z,22.55
2017-03-30T14:47:16.481Z,22.48
2017-03-30T14:48:27.489Z,22.55
2017-03-30T14:49:38.482Z,22.6
2017-03-30T14:50:49.484Z,22.64
2017-03-30T14:52:00.896Z,22.75
2017-03-30T14:53:11.902Z,22.82
2017-03-30T14:54:23.106Z,22.88
2017-03-30T14:55:34.319Z,22.99
2017-03-30T14:56:45.316Z,22.97
2017-03-30T14:57:56.312Z,22.64
2017-03-30T14:59:07.310Z,22.55
2017-03-30T15:00:18.707Z,22.33
2017-03-30T15:01:29.712Z,22.24
2017-03-30T15:02:40.715Z,22.24
2017-03-30T15:03:51.908Z,22.15
2017-03-30T15:05:03.115Z,22.12
2017-03-30T15:06:14.314Z,22
2017-03-30T15:07:25.350Z,21.99
2017-03-30T15:08:36.397Z,22.04
2017-03-30T15:09:47.597Z,21.89
2017-03-30T15:10:58.604Z,21.9
2017-03-30T15:12:09.607Z,21.9
2017-03-30T15:13:20.806Z,21.97
2017-03-30T15:14:31.799Z,21.94
2017-03-30T15:15:43.010Z,21.92
2017-03-30T15:16:54.213Z,21.86
2017-03-30T15:18:05.209Z,21.85